sensor_id;sensor_type;location;lat;lon;timestamp;pressure;altitude;pressure_sealevel;temperature;humidity
57900;BME280;60605;53.716;19.940;2023-02-19T00:03:39;99556.45;;;1.46;100.00
57900;BME280;60605;53.716;19.940;2023-02-19T00:08:42;99557.23;;;1.45;100.00
57900;BME280;60605;53.716;19.940;2023-02-19T00:13:48;99561.92;;;1.43;100.00
57900;BME280;60605;53.716;19.940;2023-02-19T00:18:52;99558.02;;;1.39;100.00
57900;BME280;60605;53.716;19.940;2023-02-19T00:23:59;99560.69;;;1.34;100.00
57900;BME280;60605;53.716;19.940;2023-02-19T00:29:03;99565.02;;;1.28;100.00
57900;BME280;60605;53.716;19.940;2023-02-19T00:34:06;99566.13;;;1.20;100.00
57900;BME280;60605;53.716;19.940;2023-02-19T00:39:12;99562.20;;;1.11;100.00
57900;BME280;60605;53.716;19.940;2023-02-19T00:44:17;99562.22;;;0.99;100.00
57900;BME280;60605;53.716;19.940;2023-02-19T00:49:22;99562.93;;;0.84;100.00
57900;BME280;60605;53.716;19.940;2023-02-19T00:54:25;99562.45;;;0.69;100.00
57900;BME280;60605;53.716;19.940;2023-02-19T00:59:28;99569.98;;;0.55;100.00
57900;BME280;60605;53.716;19.940;2023-02-19T01:04:31;99582.61;;;0.42;100.00
57900;BME280;60605;53.716;19.940;2023-02-19T01:09:34;99586.91;;;0.31;100.00
57900;BME280;60605;53.716;19.940;2023-02-19T01:14:37;99590.72;;;0.22;100.00
57900;BME280;60605;53.716;19.940;2023-02-19T01:19:40;99586.27;;;0.20;100.00
57900;BME280;60605;53.716;19.940;2023-02-19T01:24:43;99588.50;;;0.24;100.00
57900;BME280;60605;53.716;19.940;2023-02-19T01:29:46;99584.36;;;0.25;100.00
57900;BME280;60605;53.716;19.940;2023-02-19T01:34:49;99585.48;;;0.29;100.00
57900;BME280;60605;53.716;19.940;2023-02-19T01:39:52;99580.09;;;0.33;100.00
57900;BME280;60605;53.716;19.940;2023-02-19T01:50:21;99576.77;;;0.46;100.00
57900;BME280;60605;53.716;19.940;2023-02-19T01:55:25;99569.73;;;0.53;100.00
57900;BME280;60605;53.716;19.940;2023-02-19T02:00:28;99575.07;;;0.62;100.00
57900;BME280;60605;53.716;19.940;2023-02-19T02:10:49;99575.73;;;0.85;100.00
57900;BME280;60605;53.716;19.940;2023-02-19T02:32:08;99563.92;;;1.35;100.00
57900;BME280;60605;53.716;19.940;2023-02-19T02:37:13;99571.09;;;1.48;100.00
57900;BME280;60605;53.716;19.940;2023-02-19T02:42:17;99576.40;;;1.59;100.00
57900;BME280;60605;53.716;19.940;2023-02-19T02:47:33;99582.10;;;1.69;100.00
57900;BME280;60605;53.716;19.940;2023-02-19T02:52:49;99582.58;;;1.80;100.00
57900;BME280;60605;53.716;19.940;2023-02-19T02:58:14;99576.98;;;1.89;100.00
57900;BME280;60605;53.716;19.940;2023-02-19T03:03:21;99575.24;;;1.95;100.00
57900;BME280;60605;53.716;19.940;2023-02-19T03:08:29;99574.84;;;2.01;100.00
57900;BME280;60605;53.716;19.940;2023-02-19T03:13:35;99573.23;;;2.05;100.00
57900;BME280;60605;53.716;19.940;2023-02-19T03:18:59;99572.81;;;2.09;100.00
57900;BME280;60605;53.716;19.940;2023-02-19T03:24:26;99563.98;;;2.12;100.00
57900;BME280;60605;53.716;19.940;2023-02-19T03:29:50;99561.23;;;2.13;100.00
57900;BME280;60605;53.716;19.940;2023-02-19T03:35:00;99563.89;;;2.15;100.00
57900;BME280;60605;53.716;19.940;2023-02-19T03:40:06;99563.86;;;2.17;100.00
57900;BME280;60605;53.716;19.940;2023-02-19T03:50:45;99564.98;;;2.23;100.00
57900;BME280;60605;53.716;19.940;2023-02-19T03:56:03;99560.67;;;2.26;100.00
57900;BME280;60605;53.716;19.940;2023-02-19T04:01:16;99559.73;;;2.30;100.00
57900;BME280;60605;53.716;19.940;2023-02-19T04:06:27;99557.26;;;2.32;100.00
57900;BME280;60605;53.716;19.940;2023-02-19T04:11:31;99556.61;;;2.35;100.00
57900;BME280;60605;53.716;19.940;2023-02-19T04:16:40;99554.15;;;2.38;100.00
57900;BME280;60605;53.716;19.940;2023-02-19T04:21:45;99550.96;;;2.38;100.00
57900;BME280;60605;53.716;19.940;2023-02-19T04:26:49;99551.77;;;2.37;100.00
57900;BME280;60605;53.716;19.940;2023-02-19T04:31:52;99552.41;;;2.33;100.00
57900;BME280;60605;53.716;19.940;2023-02-19T04:36:55;99545.82;;;2.29;100.00
57900;BME280;60605;53.716;19.940;2023-02-19T04:41:58;99544.86;;;2.26;100.00
57900;BME280;60605;53.716;19.940;2023-02-19T04:47:01;99544.61;;;2.22;100.00
57900;BME280;60605;53.716;19.940;2023-02-19T04:52:05;99546.22;;;2.18;100.00
57900;BME280;60605;53.716;19.940;2023-02-19T04:57:08;99540.02;;;2.11;100.00
57900;BME280;60605;53.716;19.940;2023-02-19T05:02:11;99536.38;;;2.04;100.00
57900;BME280;60605;53.716;19.940;2023-02-19T05:07:15;99533.17;;;1.97;100.00
57900;BME280;60605;53.716;19.940;2023-02-19T05:12:18;99531.34;;;1.92;100.00
57900;BME280;60605;53.716;19.940;2023-02-19T05:17:21;99532.10;;;1.86;100.00
57900;BME280;60605;53.716;19.940;2023-02-19T05:22:24;99540.10;;;1.83;100.00
57900;BME280;60605;53.716;19.940;2023-02-19T05:27:29;99535.19;;;1.80;100.00
57900;BME280;60605;53.716;19.940;2023-02-19T05:32:34;99530.95;;;1.78;100.00
57900;BME280;60605;53.716;19.940;2023-02-19T05:37:37;99529.98;;;1.77;100.00
57900;BME280;60605;53.716;19.940;2023-02-19T05:42:40;99538.05;;;1.77;100.00
57900;BME280;60605;53.716;19.940;2023-02-19T05:47:43;99542.81;;;1.77;100.00
57900;BME280;60605;53.716;19.940;2023-02-19T05:52:46;99544.15;;;1.78;100.00
57900;BME280;60605;53.716;19.940;2023-02-19T05:57:49;99546.66;;;1.82;100.00
57900;BME280;60605;53.716;19.940;2023-02-19T06:02:53;99550.59;;;1.89;100.00
57900;BME280;60605;53.716;19.940;2023-02-19T06:07:57;99552.95;;;1.95;100.00
57900;BME280;60605;53.716;19.940;2023-02-19T06:13:00;99555.55;;;2.00;100.00
57900;BME280;60605;53.716;19.940;2023-02-19T06:18:03;99561.04;;;2.06;100.00
57900;BME280;60605;53.716;19.940;2023-02-19T06:23:06;99565.09;;;2.13;100.00
57900;BME280;60605;53.716;19.940;2023-02-19T06:28:10;99571.29;;;2.19;100.00
57900;BME280;60605;53.716;19.940;2023-02-19T06:33:13;99576.14;;;2.24;100.00
57900;BME280;60605;53.716;19.940;2023-02-19T06:38:16;99577.80;;;2.30;100.00
57900;BME280;60605;53.716;19.940;2023-02-19T06:43:19;99586.48;;;2.39;100.00
57900;BME280;60605;53.716;19.940;2023-02-19T06:48:22;99596.09;;;2.49;100.00
57900;BME280;60605;53.716;19.940;2023-02-19T06:53:25;99597.00;;;2.58;100.00
57900;BME280;60605;53.716;19.940;2023-02-19T06:58:30;99600.50;;;2.71;100.00
57900;BME280;60605;53.716;19.940;2023-02-19T07:03:34;99608.16;;;2.88;100.00
57900;BME280;60605;53.716;19.940;2023-02-19T07:08:37;99608.14;;;2.99;100.00
57900;BME280;60605;53.716;19.940;2023-02-19T07:13:40;99613.64;;;3.05;100.00
57900;BME280;60605;53.716;19.940;2023-02-19T07:18:44;99615.75;;;3.14;100.00
57900;BME280;60605;53.716;19.940;2023-02-19T07:23:48;99622.52;;;3.31;100.00
57900;BME280;60605;53.716;19.940;2023-02-19T07:28:52;99628.83;;;3.48;100.00
57900;BME280;60605;53.716;19.940;2023-02-19T07:33:57;99629.11;;;3.53;100.00
57900;BME280;60605;53.716;19.940;2023-02-19T07:39:00;99636.86;;;3.56;100.00
57900;BME280;60605;53.716;19.940;2023-02-19T07:44:04;99645.98;;;3.59;100.00
57900;BME280;60605;53.716;19.940;2023-02-19T07:49:07;99647.23;;;3.63;100.00
57900;BME280;60605;53.716;19.940;2023-02-19T07:54:11;99644.84;;;3.69;100.00
57900;BME280;60605;53.716;19.940;2023-02-19T07:59:15;99648.30;;;3.80;100.00
57900;BME280;60605;53.716;19.940;2023-02-19T08:04:21;99650.24;;;3.89;100.00
57900;BME280;60605;53.716;19.940;2023-02-19T08:09:24;99659.11;;;3.90;100.00
57900;BME280;60605;53.716;19.940;2023-02-19T08:14:28;99663.84;;;4.01;100.00
57900;BME280;60605;53.716;19.940;2023-02-19T08:19:31;99676.33;;;4.29;100.00
57900;BME280;60605;53.716;19.940;2023-02-19T08:24:35;99679.49;;;4.56;100.00
57900;BME280;60605;53.716;19.940;2023-02-19T08:29:41;99682.89;;;4.64;100.00
57900;BME280;60605;53.716;19.940;2023-02-19T08:34:44;99683.99;;;4.63;100.00
57900;BME280;60605;53.716;19.940;2023-02-19T08:39:47;99685.14;;;4.62;99.94
57900;BME280;60605;53.716;19.940;2023-02-19T08:44:50;99695.15;;;4.55;99.71
57900;BME280;60605;53.716;19.940;2023-02-19T08:49:53;99703.98;;;4.45;99.58
57900;BME280;60605;53.716;19.940;2023-02-19T08:54:56;99704.20;;;4.38;99.88
57900;BME280;60605;53.716;19.940;2023-02-19T09:00:00;99712.52;;;4.34;99.96
57900;BME280;60605;53.716;19.940;2023-02-19T09:05:04;99715.56;;;4.46;100.00
57900;BME280;60605;53.716;19.940;2023-02-19T09:10:11;99723.11;;;4.76;100.00
57900;BME280;60605;53.716;19.940;2023-02-19T09:15:15;99729.98;;;5.15;99.85
57900;BME280;60605;53.716;19.940;2023-02-19T09:20:21;99729.30;;;5.57;98.93
57900;BME280;60605;53.716;19.940;2023-02-19T09:25:26;99730.12;;;6.53;97.18
57900;BME280;60605;53.716;19.940;2023-02-19T09:30:29;99734.02;;;7.79;92.03
57900;BME280;60605;53.716;19.940;2023-02-19T09:35:32;99736.04;;;8.22;89.27
57900;BME280;60605;53.716;19.940;2023-02-19T09:40:36;99740.38;;;9.09;87.57
57900;BME280;60605;53.716;19.940;2023-02-19T09:45:40;99745.64;;;9.90;84.60
57900;BME280;60605;53.716;19.940;2023-02-19T09:50:46;99747.79;;;10.08;80.50
57900;BME280;60605;53.716;19.940;2023-02-19T09:55:51;99754.38;;;10.18;77.70
57900;BME280;60605;53.716;19.940;2023-02-19T10:00:57;99754.23;;;10.21;74.46
57900;BME280;60605;53.716;19.940;2023-02-19T10:06:06;99757.05;;;10.66;72.34
57900;BME280;60605;53.716;19.940;2023-02-19T10:11:13;99765.23;;;10.59;71.27
57900;BME280;60605;53.716;19.940;2023-02-19T10:16:23;99768.33;;;11.23;68.94
57900;BME280;60605;53.716;19.940;2023-02-19T10:21:27;99776.92;;;12.10;66.12
57900;BME280;60605;53.716;19.940;2023-02-19T10:26:30;99782.84;;;12.07;64.67
57900;BME280;60605;53.716;19.940;2023-02-19T10:31:37;99783.87;;;11.28;64.99
57900;BME280;60605;53.716;19.940;2023-02-19T10:36:41;99783.84;;;10.58;65.31
57900;BME280;60605;53.716;19.940;2023-02-19T10:41:48;99785.95;;;10.10;66.66
57900;BME280;60605;53.716;19.940;2023-02-19T10:46:55;99786.22;;;9.79;66.09
57900;BME280;60605;53.716;19.940;2023-02-19T10:52:02;99785.58;;;9.56;66.49
57900;BME280;60605;53.716;19.940;2023-02-19T11:02:32;99791.89;;;9.44;65.18
57900;BME280;60605;53.716;19.940;2023-02-19T11:07:37;99790.34;;;9.38;65.24
57900;BME280;60605;53.716;19.940;2023-02-19T11:12:40;99796.44;;;9.18;63.94
57900;BME280;60605;53.716;19.940;2023-02-19T11:18:04;99795.04;;;8.90;63.80
57900;BME280;60605;53.716;19.940;2023-02-19T11:23:16;99799.66;;;8.74;65.15
57900;BME280;60605;53.716;19.940;2023-02-19T11:28:30;99808.51;;;8.73;65.06
57900;BME280;60605;53.716;19.940;2023-02-19T11:33:34;99813.58;;;8.76;62.61
57900;BME280;60605;53.716;19.940;2023-02-19T11:38:37;99817.08;;;8.66;62.16
57900;BME280;60605;53.716;19.940;2023-02-19T12:11:02;99843.02;;;7.31;62.36
57900;BME280;60605;53.716;19.940;2023-02-19T12:22:08;99847.21;;;7.32;62.74
57900;BME280;60605;53.716;19.940;2023-02-19T12:32:45;99859.20;;;7.65;61.52
57900;BME280;60605;53.716;19.940;2023-02-19T12:43:23;99870.78;;;7.46;57.77
57900;BME280;60605;53.716;19.940;2023-02-19T12:58:59;99877.50;;;7.06;60.51
57900;BME280;60605;53.716;19.940;2023-02-19T13:04:32;99880.68;;;7.14;60.95
57900;BME280;60605;53.716;19.940;2023-02-19T13:09:53;99887.08;;;7.19;60.95
57900;BME280;60605;53.716;19.940;2023-02-19T13:15:01;99893.66;;;7.06;61.04
57900;BME280;60605;53.716;19.940;2023-02-19T13:20:17;99902.41;;;6.74;61.04
57900;BME280;60605;53.716;19.940;2023-02-19T13:25:45;99898.95;;;6.44;61.80
57900;BME280;60605;53.716;19.940;2023-02-19T13:36:13;99908.92;;;6.16;61.97
57900;BME280;60605;53.716;19.940;2023-02-19T13:41:26;99906.83;;;6.04;61.33
57900;BME280;60605;53.716;19.940;2023-02-19T13:46:35;99905.72;;;5.84;60.65
57900;BME280;60605;53.716;19.940;2023-02-19T13:51:47;99911.38;;;5.61;61.25
57900;BME280;60605;53.716;19.940;2023-02-19T13:57:22;99917.47;;;5.44;61.37
57900;BME280;60605;53.716;19.940;2023-02-19T14:02:31;99925.67;;;5.30;61.96
57900;BME280;60605;53.716;19.940;2023-02-19T14:07:47;99929.83;;;5.19;61.78
57900;BME280;60605;53.716;19.940;2023-02-19T14:12:51;99941.39;;;5.03;62.40
57900;BME280;60605;53.716;19.940;2023-02-19T14:17:54;99949.64;;;4.87;63.16
57900;BME280;60605;53.716;19.940;2023-02-19T14:23:07;99953.50;;;4.72;63.70
57900;BME280;60605;53.716;19.940;2023-02-19T14:33:26;99955.09;;;4.68;65.52
57900;BME280;60605;53.716;19.940;2023-02-19T14:39:26;99963.03;;;4.77;65.25
57900;BME280;60605;53.716;19.940;2023-02-19T14:44:06;99968.95;;;4.85;65.59
57900;BME280;60605;53.716;19.940;2023-02-19T14:49:22;99980.02;;;4.92;64.46
57900;BME280;60605;53.716;19.940;2023-02-19T14:54:37;99982.48;;;4.84;63.73
57900;BME280;60605;53.716;19.940;2023-02-19T14:59:58;99991.98;;;4.65;63.39
57900;BME280;60605;53.716;19.940;2023-02-19T15:05:23;99996.50;;;4.46;63.44
57900;BME280;60605;53.716;19.940;2023-02-19T15:10:29;100002.08;;;4.31;64.13
57900;BME280;60605;53.716;19.940;2023-02-19T15:15:37;100001.89;;;4.18;64.71
57900;BME280;60605;53.716;19.940;2023-02-19T15:20:43;100007.48;;;4.08;65.26
57900;BME280;60605;53.716;19.940;2023-02-19T15:25:50;100009.77;;;3.97;65.91
57900;BME280;60605;53.716;19.940;2023-02-19T15:36:04;100033.02;;;3.70;66.63
57900;BME280;60605;53.716;19.940;2023-02-19T15:41:18;100038.33;;;3.56;66.75
57900;BME280;60605;53.716;19.940;2023-02-19T15:46:24;100055.80;;;3.42;66.82
57900;BME280;60605;53.716;19.940;2023-02-19T15:51:38;100067.64;;;3.28;67.01
57900;BME280;60605;53.716;19.940;2023-02-19T15:56:48;100071.06;;;3.12;67.18
57900;BME280;60605;53.716;19.940;2023-02-19T16:01:52;100078.83;;;2.98;67.33
57900;BME280;60605;53.716;19.940;2023-02-19T16:07:01;100085.60;;;2.85;67.62
57900;BME280;60605;53.716;19.940;2023-02-19T16:12:22;100090.26;;;2.69;67.93
57900;BME280;60605;53.716;19.940;2023-02-19T16:17:25;100090.23;;;2.54;68.04
57900;BME280;60605;53.716;19.940;2023-02-19T16:22:33;100100.25;;;2.42;68.42
57900;BME280;60605;53.716;19.940;2023-02-19T16:27:43;100116.58;;;2.30;68.80
57900;BME280;60605;53.716;19.940;2023-02-19T16:32:46;100127.53;;;2.17;69.28
57900;BME280;60605;53.716;19.940;2023-02-19T16:37:56;100129.27;;;2.05;69.69
57900;BME280;60605;53.716;19.940;2023-02-19T16:48:07;100133.60;;;1.77;70.79
57900;BME280;60605;53.716;19.940;2023-02-19T16:53:18;100129.98;;;1.62;71.23
57900;BME280;60605;53.716;19.940;2023-02-19T16:58:22;100145.55;;;1.48;71.84
57900;BME280;60605;53.716;19.940;2023-02-19T17:03:27;100155.20;;;1.32;72.62
57900;BME280;60605;53.716;19.940;2023-02-19T17:08:36;100160.02;;;1.17;73.51
57900;BME280;60605;53.716;19.940;2023-02-19T17:13:41;100167.64;;;1.03;74.26
57900;BME280;60605;53.716;19.940;2023-02-19T17:18:45;100180.49;;;0.91;74.98
57900;BME280;60605;53.716;19.940;2023-02-19T17:23:48;100187.52;;;0.79;75.70
57900;BME280;60605;53.716;19.940;2023-02-19T17:29:00;100184.83;;;0.69;76.22
57900;BME280;60605;53.716;19.940;2023-02-19T17:34:04;100187.04;;;0.62;76.22
57900;BME280;60605;53.716;19.940;2023-02-19T17:39:12;100182.64;;;0.59;76.08
57900;BME280;60605;53.716;19.940;2023-02-19T17:44:17;100183.41;;;0.58;75.81
57900;BME280;60605;53.716;19.940;2023-02-19T17:49:20;100186.79;;;0.57;75.47
57900;BME280;60605;53.716;19.940;2023-02-19T17:54:23;100189.16;;;0.59;75.06
57900;BME280;60605;53.716;19.940;2023-02-19T17:59:29;100186.20;;;0.61;74.67
57900;BME280;60605;53.716;19.940;2023-02-19T18:04:34;100193.73;;;0.65;74.26
57900;BME280;60605;53.716;19.940;2023-02-19T18:09:39;100201.29;;;0.70;73.92
57900;BME280;60605;53.716;19.940;2023-02-19T18:14:46;100208.45;;;0.74;73.71
57900;BME280;60605;53.716;19.940;2023-02-19T18:19:51;100213.37;;;0.77;73.71
57900;BME280;60605;53.716;19.940;2023-02-19T18:24:55;100216.39;;;0.76;73.78
57900;BME280;60605;53.716;19.940;2023-02-19T18:29:58;100216.77;;;0.73;73.91
57900;BME280;60605;53.716;19.940;2023-02-19T18:35:03;100216.27;;;0.75;74.13
57900;BME280;60605;53.716;19.940;2023-02-19T18:40:08;100214.40;;;0.80;74.40
57900;BME280;60605;53.716;19.940;2023-02-19T18:45:18;100215.48;;;0.83;74.67
57900;BME280;60605;53.716;19.940;2023-02-19T18:50:25;100221.83;;;0.85;75.03
57900;BME280;60605;53.716;19.940;2023-02-19T18:55:31;100227.78;;;0.85;75.33
57900;BME280;60605;53.716;19.940;2023-02-19T19:00:37;100235.86;;;0.83;75.71
57900;BME280;60605;53.716;19.940;2023-02-19T19:05:43;100237.90;;;0.78;76.37
57900;BME280;60605;53.716;19.940;2023-02-19T19:10:48;100238.48;;;0.77;76.96
57900;BME280;60605;53.716;19.940;2023-02-19T19:15:52;100230.55;;;0.83;77.39
57900;BME280;60605;53.716;19.940;2023-02-19T19:20:56;100227.63;;;0.88;77.38
57900;BME280;60605;53.716;19.940;2023-02-19T19:26:05;100222.70;;;0.88;77.53
57900;BME280;60605;53.716;19.940;2023-02-19T19:31:10;100215.63;;;0.89;77.78
57900;BME280;60605;53.716;19.940;2023-02-19T19:36:21;100219.20;;;0.93;78.05
57900;BME280;60605;53.716;19.940;2023-02-19T19:41:25;100220.43;;;0.99;78.32
57900;BME280;60605;53.716;19.940;2023-02-19T19:46:29;100226.88;;;1.08;78.47
57900;BME280;60605;53.716;19.940;2023-02-19T19:51:34;100213.83;;;1.20;78.54
57900;BME280;60605;53.716;19.940;2023-02-19T19:56:42;100206.34;;;1.27;78.45
57900;BME280;60605;53.716;19.940;2023-02-19T20:01:50;100206.45;;;1.31;78.57
57900;BME280;60605;53.716;19.940;2023-02-19T20:06:56;100217.34;;;1.34;78.66
57900;BME280;60605;53.716;19.940;2023-02-19T20:12:01;100219.93;;;1.35;78.67
57900;BME280;60605;53.716;19.940;2023-02-19T20:17:05;100225.56;;;1.35;78.90
57900;BME280;60605;53.716;19.940;2023-02-19T20:22:11;100234.23;;;1.39;79.30
57900;BME280;60605;53.716;19.940;2023-02-19T20:27:14;100237.45;;;1.47;79.62
57900;BME280;60605;53.716;19.940;2023-02-19T20:32:17;100242.95;;;1.54;79.91
57900;BME280;60605;53.716;19.940;2023-02-19T20:37:22;100239.40;;;1.60;80.36
57900;BME280;60605;53.716;19.940;2023-02-19T20:42:26;100244.59;;;1.62;80.84
57900;BME280;60605;53.716;19.940;2023-02-19T20:47:32;100249.39;;;1.64;81.41
57900;BME280;60605;53.716;19.940;2023-02-19T20:52:36;100244.98;;;1.69;82.04
57900;BME280;60605;53.716;19.940;2023-02-19T20:57:39;100243.49;;;1.76;82.47
57900;BME280;60605;53.716;19.940;2023-02-19T21:02:42;100241.85;;;1.82;82.83
57900;BME280;60605;53.716;19.940;2023-02-19T21:07:47;100236.83;;;1.87;83.09
57900;BME280;60605;53.716;19.940;2023-02-19T21:12:51;100232.42;;;1.89;83.30
57900;BME280;60605;53.716;19.940;2023-02-19T21:17:56;100238.92;;;1.93;84.10
57900;BME280;60605;53.716;19.940;2023-02-19T21:22:59;100238.89;;;1.90;86.16
57900;BME280;60605;53.716;19.940;2023-02-19T21:28:04;100237.77;;;1.83;87.86
57900;BME280;60605;53.716;19.940;2023-02-19T21:33:11;100240.13;;;1.74;89.06
57900;BME280;60605;53.716;19.940;2023-02-19T21:38:15;100240.53;;;1.67;90.02
57900;BME280;60605;53.716;19.940;2023-02-19T21:43:18;100240.48;;;1.63;90.62
57900;BME280;60605;53.716;19.940;2023-02-19T21:48:22;100238.69;;;1.61;91.13
57900;BME280;60605;53.716;19.940;2023-02-19T21:53:26;100226.80;;;1.60;91.78
57900;BME280;60605;53.716;19.940;2023-02-19T21:58:29;100220.48;;;1.59;92.32
57900;BME280;60605;53.716;19.940;2023-02-19T22:03:33;100221.23;;;1.58;92.77
57900;BME280;60605;53.716;19.940;2023-02-19T22:08:36;100221.36;;;1.59;93.18
57900;BME280;60605;53.716;19.940;2023-02-19T22:13:39;100222.20;;;1.60;93.47
57900;BME280;60605;53.716;19.940;2023-02-19T22:18:50;100220.81;;;1.62;93.86
57900;BME280;60605;53.716;19.940;2023-02-19T22:23:54;100219.23;;;1.65;94.20
57900;BME280;60605;53.716;19.940;2023-02-19T22:28:57;100222.38;;;1.68;94.38
57900;BME280;60605;53.716;19.940;2023-02-19T22:34:01;100218.01;;;1.70;94.67
57900;BME280;60605;53.716;19.940;2023-02-19T22:39:07;100211.86;;;1.72;94.79
57900;BME280;60605;53.716;19.940;2023-02-19T22:44:11;100214.31;;;1.75;94.91
57900;BME280;60605;53.716;19.940;2023-02-19T22:49:14;100213.14;;;1.77;95.44
57900;BME280;60605;53.716;19.940;2023-02-19T22:54:18;100208.10;;;1.76;96.03
57900;BME280;60605;53.716;19.940;2023-02-19T22:59:26;100211.59;;;1.74;96.80
57900;BME280;60605;53.716;19.940;2023-02-19T23:04:29;100204.33;;;1.72;97.63
57900;BME280;60605;53.716;19.940;2023-02-19T23:09:33;100203.11;;;1.69;98.10
57900;BME280;60605;53.716;19.940;2023-02-19T23:14:36;100191.95;;;1.67;98.60
57900;BME280;60605;53.716;19.940;2023-02-19T23:19:39;100194.06;;;1.67;99.07
57900;BME280;60605;53.716;19.940;2023-02-19T23:24:43;100184.60;;;1.69;99.51
57900;BME280;60605;53.716;19.940;2023-02-19T23:29:46;100180.33;;;1.73;99.79
57900;BME280;60605;53.716;19.940;2023-02-19T23:34:49;100179.17;;;1.77;99.95
57900;BME280;60605;53.716;19.940;2023-02-19T23:39:53;100184.52;;;1.81;100.00
57900;BME280;60605;53.716;19.940;2023-02-19T23:44:56;100185.45;;;1.83;100.00
57900;BME280;60605;53.716;19.940;2023-02-19T23:49:59;100181.20;;;1.81;100.00
57900;BME280;60605;53.716;19.940;2023-02-19T23:55:04;100182.44;;;1.78;100.00
